Frostburg, MD

11:30 AM EST on November 28, 2014 (GMT -0500)
Johnstown-Cambria County | Change Station
CLOSE
Current Station
Airport
Location: Johnstown,
Elevation: 2283 ft
Nearby Weather Stations
Active Advisory: Winter Weather Advisory Active Notice: Public Information Statement

Elev 2283 ft 40.32 °N, 78.83 °W | Updated 36 minutes ago

Mostly Cloudy
Mostly Cloudy
21 °F
Feels Like 8 °F
N
15
Wind Variable Wind from WNW

Today
High -- | Low -- °F
--% Chance of Precip.
Yesterday
High -- | Low -- °F
Precip. -- in
7:14 AM 4:52 PM
Waxing Crescent, 42% visible
Pressure 30.30 in
Visibility 8.0 miles
Clouds Scattered Clouds 1700 ft
Overcast 2600 ft
Windchill 8 °F
Dew Point 14 °F
Humidity 74%
Rainfall 0.01 in
Snow Depth Not available.
UV 1 out of 12
Pollen .10 out of 12
Air Quality Not available.
Flu Activity Not available.
METAR KJST 281554Z AUTO 30013KT 8SM -SN SCT017 OVC026 M06/M10 A3020 RMK AO2 SLP261 P0000 T10611100

More Conditions Fewer Conditions

Pressure 30.30 in
Visibility 8.0 miles
Clouds Scattered Clouds 1700 ft
Overcast 2600 ft
Windchill 8 °F
Dew Point 14 °F
Humidity 74%
Rainfall 0.01 in
Snow Depth Not available.
UV 1 out of 12
Pollen .10 out of 12
Air Quality Not available.
Flu Activity Not available.
METAR KJST 281554Z AUTO 30013KT 8SM -SN SCT017 OVC026 M06/M10 A3020 RMK AO2 SLP261 P0000 T10611100

More Conditions Fewer Conditions

10-Day Weather Forecast

Almanac

Astronomy

Nov. 28, 2014 Rise Set
Actual Time
Civil Twilight
Nautical Twilight
Astronomical Twilight
Moon
Length of Visible Light
Length of Day
Tomorrow will be .
, % of the Moon is Illuminated

Today's Extremes

State Highs State Lows

Community

WunderPhotos

Upload Photos

1,774,232 photos uploaded!

WunderBlogs® & News

Nearby

Air Quality

  Air Quality AQ Index Pollutant
Not available.

Snow Depth

Station Depth Elevation

Earthquake Activity

City Distance Mag. Time & Date
Minimum magnitude displayed is 2.5.

Coastal Water Temperatures

Place Temperature

Nearby Weather Stations